sensor_id;sensor_type;location;lat;lon;timestamp;temperature;humidity
70947;DHT22;58605;48.700;8.760;2023-09-12T00:00:04;16.80;89.50
70947;DHT22;58605;48.700;8.760;2023-09-12T00:02:33;16.80;90.00
70947;DHT22;58605;48.700;8.760;2023-09-12T00:05:00;16.80;89.70
70947;DHT22;58605;48.700;8.760;2023-09-12T00:07:26;16.80;90.00
70947;DHT22;58605;48.700;8.760;2023-09-12T00:09:52;16.80;89.70
70947;DHT22;58605;48.700;8.760;2023-09-12T00:12:22;16.70;89.80
70947;DHT22;58605;48.700;8.760;2023-09-12T00:14:51;16.60;89.20
70947;DHT22;58605;48.700;8.760;2023-09-12T00:17:17;16.50;89.40
70947;DHT22;58605;48.700;8.760;2023-09-12T00:19:43;16.50;90.00
70947;DHT22;58605;48.700;8.760;2023-09-12T00:22:09;16.40;89.60
70947;DHT22;58605;48.700;8.760;2023-09-12T00:24:35;16.30;89.70
70947;DHT22;58605;48.700;8.760;2023-09-12T00:27:04;16.40;90.30
70947;DHT22;58605;48.700;8.760;2023-09-12T00:29:31;16.30;89.90
70947;DHT22;58605;48.700;8.760;2023-09-12T00:31:59;16.20;89.90
70947;DHT22;58605;48.700;8.760;2023-09-12T00:34:25;16.10;90.10
70947;DHT22;58605;48.700;8.760;2023-09-12T00:36:52;16.10;90.20
70947;DHT22;58605;48.700;8.760;2023-09-12T00:39:18;16.10;90.20
70947;DHT22;58605;48.700;8.760;2023-09-12T00:41:44;16.10;90.20
70947;DHT22;58605;48.700;8.760;2023-09-12T00:44:11;16.10;90.40
70947;DHT22;58605;48.700;8.760;2023-09-12T00:46:37;16.10;90.50
70947;DHT22;58605;48.700;8.760;2023-09-12T00:49:06;16.20;90.40
70947;DHT22;58605;48.700;8.760;2023-09-12T00:51:34;16.20;90.20
70947;DHT22;58605;48.700;8.760;2023-09-12T00:54:01;16.20;89.90
70947;DHT22;58605;48.700;8.760;2023-09-12T00:56:27;16.00;89.90
70947;DHT22;58605;48.700;8.760;2023-09-12T00:58:55;16.00;90.30
70947;DHT22;58605;48.700;8.760;2023-09-12T01:01:47;15.90;90.10
70947;DHT22;58605;48.700;8.760;2023-09-12T01:04:14;15.90;90.40
70947;DHT22;58605;48.700;8.760;2023-09-12T01:06:41;15.90;90.70
70947;DHT22;58605;48.700;8.760;2023-09-12T01:09:08;15.90;90.30
70947;DHT22;58605;48.700;8.760;2023-09-12T01:11:35;15.80;90.30
70947;DHT22;58605;48.700;8.760;2023-09-12T01:14:01;15.80;90.50
70947;DHT22;58605;48.700;8.760;2023-09-12T01:16:27;15.80;90.60
70947;DHT22;58605;48.700;8.760;2023-09-12T01:18:53;15.90;90.70
70947;DHT22;58605;48.700;8.760;2023-09-12T01:21:41;15.80;90.60
70947;DHT22;58605;48.700;8.760;2023-09-12T01:24:33;15.90;90.50
70947;DHT22;58605;48.700;8.760;2023-09-12T01:27:19;15.80;90.30
70947;DHT22;58605;48.700;8.760;2023-09-12T01:29:50;15.70;90.10
70947;DHT22;58605;48.700;8.760;2023-09-12T01:32:18;15.60;90.40
70947;DHT22;58605;48.700;8.760;2023-09-12T01:34:45;15.60;90.50
70947;DHT22;58605;48.700;8.760;2023-09-12T01:37:12;15.60;90.40
70947;DHT22;58605;48.700;8.760;2023-09-12T01:39:38;15.60;90.40
70947;DHT22;58605;48.700;8.760;2023-09-12T01:42:04;15.60;90.70
70947;DHT22;58605;48.700;8.760;2023-09-12T01:44:34;15.60;90.50
70947;DHT22;58605;48.700;8.760;2023-09-12T01:47:03;15.50;90.50
70947;DHT22;58605;48.700;8.760;2023-09-12T01:49:31;15.50;90.30
70947;DHT22;58605;48.700;8.760;2023-09-12T01:51:58;15.50;90.50
70947;DHT22;58605;48.700;8.760;2023-09-12T01:54:27;15.50;90.60
70947;DHT22;58605;48.700;8.760;2023-09-12T01:56:54;15.40;90.40
70947;DHT22;58605;48.700;8.760;2023-09-12T01:59:23;15.40;90.60
70947;DHT22;58605;48.700;8.760;2023-09-12T02:02:21;15.60;91.10
70947;DHT22;58605;48.700;8.760;2023-09-12T02:04:52;15.80;91.00
70947;DHT22;58605;48.700;8.760;2023-09-12T02:07:20;15.70;90.40
70947;DHT22;58605;48.700;8.760;2023-09-12T02:09:48;15.60;90.30
70947;DHT22;58605;48.700;8.760;2023-09-12T02:12:14;15.50;90.50
70947;DHT22;58605;48.700;8.760;2023-09-12T02:14:40;15.40;90.70
70947;DHT22;58605;48.700;8.760;2023-09-12T02:17:06;15.50;91.30
70947;DHT22;58605;48.700;8.760;2023-09-12T02:19:33;15.60;90.80
70947;DHT22;58605;48.700;8.760;2023-09-12T02:21:59;15.50;90.40
70947;DHT22;58605;48.700;8.760;2023-09-12T02:24:25;15.40;90.70
70947;DHT22;58605;48.700;8.760;2023-09-12T02:26:51;15.30;90.40
70947;DHT22;58605;48.700;8.760;2023-09-12T02:29:17;15.30;90.90
70947;DHT22;58605;48.700;8.760;2023-09-12T02:31:44;15.30;90.50
70947;DHT22;58605;48.700;8.760;2023-09-12T02:34:10;15.30;90.50
70947;DHT22;58605;48.700;8.760;2023-09-12T02:36:37;15.20;90.50
70947;DHT22;58605;48.700;8.760;2023-09-12T02:39:03;15.20;90.80
70947;DHT22;58605;48.700;8.760;2023-09-12T02:41:29;15.30;90.90
70947;DHT22;58605;48.700;8.760;2023-09-12T02:43:55;15.40;90.90
70947;DHT22;58605;48.700;8.760;2023-09-12T02:46:21;15.30;90.60
70947;DHT22;58605;48.700;8.760;2023-09-12T02:48:47;15.30;90.60
70947;DHT22;58605;48.700;8.760;2023-09-12T02:51:13;15.30;90.70
70947;DHT22;58605;48.700;8.760;2023-09-12T02:53:41;15.50;91.40
70947;DHT22;58605;48.700;8.760;2023-09-12T02:56:07;15.40;90.70
70947;DHT22;58605;48.700;8.760;2023-09-12T02:58:33;15.40;90.80
70947;DHT22;58605;48.700;8.760;2023-09-12T03:00:59;15.40;90.60
70947;DHT22;58605;48.700;8.760;2023-09-12T03:03:27;15.50;90.60
70947;DHT22;58605;48.700;8.760;2023-09-12T03:05:59;15.50;91.00
70947;DHT22;58605;48.700;8.760;2023-09-12T03:08:25;15.40;90.60
70947;DHT22;58605;48.700;8.760;2023-09-12T03:10:55;15.30;91.00
70947;DHT22;58605;48.700;8.760;2023-09-12T03:13:22;15.30;91.30
70947;DHT22;58605;48.700;8.760;2023-09-12T03:15:48;15.40;91.30
70947;DHT22;58605;48.700;8.760;2023-09-12T03:18:14;15.40;90.90
70947;DHT22;58605;48.700;8.760;2023-09-12T03:20:40;15.40;90.70
70947;DHT22;58605;48.700;8.760;2023-09-12T03:23:06;15.30;90.80
70947;DHT22;58605;48.700;8.760;2023-09-12T03:25:35;15.30;90.80
70947;DHT22;58605;48.700;8.760;2023-09-12T03:28:04;15.20;90.60
70947;DHT22;58605;48.700;8.760;2023-09-12T03:30:32;15.30;91.50
70947;DHT22;58605;48.700;8.760;2023-09-12T03:32:58;15.30;91.30
70947;DHT22;58605;48.700;8.760;2023-09-12T03:35:26;15.40;91.00
70947;DHT22;58605;48.700;8.760;2023-09-12T03:37:52;15.40;91.00
70947;DHT22;58605;48.700;8.760;2023-09-12T03:40:18;15.40;90.80
70947;DHT22;58605;48.700;8.760;2023-09-12T03:42:44;15.40;91.40
70947;DHT22;58605;48.700;8.760;2023-09-12T03:45:12;15.50;91.40
70947;DHT22;58605;48.700;8.760;2023-09-12T03:47:38;15.50;91.10
70947;DHT22;58605;48.700;8.760;2023-09-12T03:50:05;15.50;91.10
70947;DHT22;58605;48.700;8.760;2023-09-12T03:52:31;15.50;91.00
70947;DHT22;58605;48.700;8.760;2023-09-12T03:54:57;15.50;91.30
70947;DHT22;58605;48.700;8.760;2023-09-12T03:57:26;15.50;91.10
70947;DHT22;58605;48.700;8.760;2023-09-12T03:59:52;15.40;91.30
70947;DHT22;58605;48.700;8.760;2023-09-12T04:02:20;15.50;91.60
70947;DHT22;58605;48.700;8.760;2023-09-12T04:04:46;15.60;91.70
70947;DHT22;58605;48.700;8.760;2023-09-12T04:07:12;15.70;91.60
70947;DHT22;58605;48.700;8.760;2023-09-12T04:09:38;15.80;91.40
70947;DHT22;58605;48.700;8.760;2023-09-12T04:12:06;15.80;91.30
70947;DHT22;58605;48.700;8.760;2023-09-12T04:14:32;15.80;91.30
70947;DHT22;58605;48.700;8.760;2023-09-12T04:16:58;15.70;91.40
70947;DHT22;58605;48.700;8.760;2023-09-12T04:19:26;15.70;91.50
70947;DHT22;58605;48.700;8.760;2023-09-12T04:21:52;15.80;91.30
70947;DHT22;58605;48.700;8.760;2023-09-12T04:24:18;15.80;91.30
70947;DHT22;58605;48.700;8.760;2023-09-12T04:26:44;15.80;91.20
70947;DHT22;58605;48.700;8.760;2023-09-12T04:29:10;15.70;91.20
70947;DHT22;58605;48.700;8.760;2023-09-12T04:31:36;15.60;91.30
70947;DHT22;58605;48.700;8.760;2023-09-12T04:34:03;15.50;91.50
70947;DHT22;58605;48.700;8.760;2023-09-12T04:36:30;15.50;91.50
70947;DHT22;58605;48.700;8.760;2023-09-12T04:38:56;15.50;91.90
70947;DHT22;58605;48.700;8.760;2023-09-12T04:41:22;15.60;91.70
70947;DHT22;58605;48.700;8.760;2023-09-12T04:43:50;15.70;91.50
70947;DHT22;58605;48.700;8.760;2023-09-12T04:46:16;15.80;91.40
70947;DHT22;58605;48.700;8.760;2023-09-12T04:48:42;15.90;91.40
70947;DHT22;58605;48.700;8.760;2023-09-12T04:51:09;16.00;91.00
70947;DHT22;58605;48.700;8.760;2023-09-12T04:53:37;16.00;90.90
70947;DHT22;58605;48.700;8.760;2023-09-12T04:56:03;15.90;91.10
70947;DHT22;58605;48.700;8.760;2023-09-12T04:58:32;15.90;91.10
70947;DHT22;58605;48.700;8.760;2023-09-12T05:00:58;15.80;91.20
70947;DHT22;58605;48.700;8.760;2023-09-12T05:03:24;15.80;91.30
70947;DHT22;58605;48.700;8.760;2023-09-12T05:05:50;15.70;91.50
70947;DHT22;58605;48.700;8.760;2023-09-12T05:08:19;15.70;91.50
70947;DHT22;58605;48.700;8.760;2023-09-12T05:10:47;15.80;91.50
70947;DHT22;58605;48.700;8.760;2023-09-12T05:13:13;15.80;91.60
70947;DHT22;58605;48.700;8.760;2023-09-12T05:15:41;15.80;91.40
70947;DHT22;58605;48.700;8.760;2023-09-12T05:18:07;15.90;91.30
70947;DHT22;58605;48.700;8.760;2023-09-12T05:20:34;15.90;91.20
70947;DHT22;58605;48.700;8.760;2023-09-12T05:23:00;15.80;90.90
70947;DHT22;58605;48.700;8.760;2023-09-12T05:25:26;15.80;91.10
70947;DHT22;58605;48.700;8.760;2023-09-12T05:27:57;15.80;91.20
70947;DHT22;58605;48.700;8.760;2023-09-12T05:30:23;15.80;91.30
70947;DHT22;58605;48.700;8.760;2023-09-12T05:32:49;15.80;91.20
70947;DHT22;58605;48.700;8.760;2023-09-12T05:35:15;15.80;91.40
70947;DHT22;58605;48.700;8.760;2023-09-12T05:37:41;15.80;91.30
70947;DHT22;58605;48.700;8.760;2023-09-12T05:40:08;15.80;91.20
70947;DHT22;58605;48.700;8.760;2023-09-12T05:42:35;15.80;91.20
70947;DHT22;58605;48.700;8.760;2023-09-12T05:45:05;15.90;91.20
70947;DHT22;58605;48.700;8.760;2023-09-12T05:47:32;16.00;91.20
70947;DHT22;58605;48.700;8.760;2023-09-12T05:49:58;16.10;91.10
70947;DHT22;58605;48.700;8.760;2023-09-12T05:52:25;16.10;91.10
70947;DHT22;58605;48.700;8.760;2023-09-12T05:54:58;16.20;91.10
70947;DHT22;58605;48.700;8.760;2023-09-12T05:57:24;16.30;91.10
70947;DHT22;58605;48.700;8.760;2023-09-12T05:59:50;16.30;90.90
70947;DHT22;58605;48.700;8.760;2023-09-12T06:02:17;16.30;90.90
70947;DHT22;58605;48.700;8.760;2023-09-12T06:04:43;16.40;90.70
70947;DHT22;58605;48.700;8.760;2023-09-12T06:07:10;16.40;90.60
70947;DHT22;58605;48.700;8.760;2023-09-12T06:09:37;16.50;90.80
70947;DHT22;58605;48.700;8.760;2023-09-12T06:12:05;16.60;90.70
70947;DHT22;58605;48.700;8.760;2023-09-12T06:14:31;16.60;90.90
70947;DHT22;58605;48.700;8.760;2023-09-12T06:16:57;16.70;91.00
70947;DHT22;58605;48.700;8.760;2023-09-12T06:19:25;16.70;90.90
70947;DHT22;58605;48.700;8.760;2023-09-12T06:22:19;16.70;91.20
70947;DHT22;58605;48.700;8.760;2023-09-12T06:24:46;16.80;91.50
70947;DHT22;58605;48.700;8.760;2023-09-12T06:27:12;17.00;91.90
70947;DHT22;58605;48.700;8.760;2023-09-12T06:29:44;17.30;91.00
70947;DHT22;58605;48.700;8.760;2023-09-12T06:32:10;17.60;90.30
70947;DHT22;58605;48.700;8.760;2023-09-12T06:34:37;17.70;90.10
70947;DHT22;58605;48.700;8.760;2023-09-12T06:37:04;17.60;90.00
70947;DHT22;58605;48.700;8.760;2023-09-12T06:39:30;17.60;90.10
70947;DHT22;58605;48.700;8.760;2023-09-12T06:41:56;17.60;90.00
70947;DHT22;58605;48.700;8.760;2023-09-12T06:44:22;17.60;90.10
70947;DHT22;58605;48.700;8.760;2023-09-12T06:46:48;17.60;90.40
70947;DHT22;58605;48.700;8.760;2023-09-12T06:49:14;17.60;90.00
70947;DHT22;58605;48.700;8.760;2023-09-12T06:51:42;17.60;90.30
70947;DHT22;58605;48.700;8.760;2023-09-12T06:54:08;17.70;90.10
70947;DHT22;58605;48.700;8.760;2023-09-12T06:56:34;17.80;89.70
70947;DHT22;58605;48.700;8.760;2023-09-12T06:59:03;17.90;89.60
70947;DHT22;58605;48.700;8.760;2023-09-12T07:01:30;17.80;90.30
70947;DHT22;58605;48.700;8.760;2023-09-12T07:03:56;17.80;90.30
70947;DHT22;58605;48.700;8.760;2023-09-12T07:06:22;17.80;90.20
70947;DHT22;58605;48.700;8.760;2023-09-12T07:08:50;17.90;90.40
70947;DHT22;58605;48.700;8.760;2023-09-12T07:11:17;18.00;90.10
70947;DHT22;58605;48.700;8.760;2023-09-12T07:13:45;18.10;89.90
70947;DHT22;58605;48.700;8.760;2023-09-12T07:16:11;18.20;87.30
70947;DHT22;58605;48.700;8.760;2023-09-12T07:18:37;18.30;88.10
70947;DHT22;58605;48.700;8.760;2023-09-12T07:21:04;18.40;87.90
70947;DHT22;58605;48.700;8.760;2023-09-12T07:23:31;18.50;89.00
70947;DHT22;58605;48.700;8.760;2023-09-12T07:26:00;18.60;87.60
70947;DHT22;58605;48.700;8.760;2023-09-12T07:28:26;18.70;87.60
70947;DHT22;58605;48.700;8.760;2023-09-12T07:30:53;18.60;87.50
70947;DHT22;58605;48.700;8.760;2023-09-12T07:33:19;18.50;87.10
70947;DHT22;58605;48.700;8.760;2023-09-12T07:35:47;18.40;87.60
70947;DHT22;58605;48.700;8.760;2023-09-12T07:38:13;18.50;87.80
70947;DHT22;58605;48.700;8.760;2023-09-12T07:40:41;18.60;87.70
70947;DHT22;58605;48.700;8.760;2023-09-12T07:43:09;18.70;87.90
70947;DHT22;58605;48.700;8.760;2023-09-12T07:45:35;18.80;87.60
70947;DHT22;58605;48.700;8.760;2023-09-12T07:48:06;18.90;87.70
70947;DHT22;58605;48.700;8.760;2023-09-12T07:50:32;19.00;87.60
70947;DHT22;58605;48.700;8.760;2023-09-12T07:52:58;19.20;87.50
70947;DHT22;58605;48.700;8.760;2023-09-12T07:55:24;19.40;89.00
70947;DHT22;58605;48.700;8.760;2023-09-12T07:57:51;19.60;87.50
70947;DHT22;58605;48.700;8.760;2023-09-12T08:00:18;19.80;87.50
70947;DHT22;58605;48.700;8.760;2023-09-12T08:02:44;20.00;87.60
70947;DHT22;58605;48.700;8.760;2023-09-12T08:05:10;20.30;84.80
70947;DHT22;58605;48.700;8.760;2023-09-12T08:07:36;20.50;84.80
70947;DHT22;58605;48.700;8.760;2023-09-12T08:10:10;20.60;84.30
70947;DHT22;58605;48.700;8.760;2023-09-12T08:12:36;20.80;83.30
70947;DHT22;58605;48.700;8.760;2023-09-12T08:15:08;20.90;83.00
70947;DHT22;58605;48.700;8.760;2023-09-12T08:17:35;21.10;83.00
70947;DHT22;58605;48.700;8.760;2023-09-12T08:20:02;21.30;82.60
70947;DHT22;58605;48.700;8.760;2023-09-12T08:22:42;21.30;83.20
70947;DHT22;58605;48.700;8.760;2023-09-12T08:25:09;21.50;81.70
70947;DHT22;58605;48.700;8.760;2023-09-12T08:27:35;21.60;81.20
70947;DHT22;58605;48.700;8.760;2023-09-12T08:30:02;21.60;81.90
70947;DHT22;58605;48.700;8.760;2023-09-12T08:32:29;21.60;80.80
70947;DHT22;58605;48.700;8.760;2023-09-12T08:34:57;21.60;80.50
70947;DHT22;58605;48.700;8.760;2023-09-12T08:37:23;21.60;80.30
70947;DHT22;58605;48.700;8.760;2023-09-12T08:39:49;21.60;80.40
70947;DHT22;58605;48.700;8.760;2023-09-12T08:42:16;21.50;79.80
70947;DHT22;58605;48.700;8.760;2023-09-12T08:44:42;21.50;79.60
70947;DHT22;58605;48.700;8.760;2023-09-12T08:47:09;21.50;79.70
70947;DHT22;58605;48.700;8.760;2023-09-12T08:49:37;21.60;80.20
70947;DHT22;58605;48.700;8.760;2023-09-12T08:52:05;21.80;79.40
70947;DHT22;58605;48.700;8.760;2023-09-12T08:54:31;22.00;79.20
70947;DHT22;58605;48.700;8.760;2023-09-12T08:56:58;21.90;77.90
70947;DHT22;58605;48.700;8.760;2023-09-12T08:59:26;21.80;77.70
70947;DHT22;58605;48.700;8.760;2023-09-12T09:01:52;21.80;77.50
70947;DHT22;58605;48.700;8.760;2023-09-12T09:04:20;22.10;78.10
70947;DHT22;58605;48.700;8.760;2023-09-12T09:06:47;22.00;76.60
70947;DHT22;58605;48.700;8.760;2023-09-12T09:09:15;21.90;76.60
70947;DHT22;58605;48.700;8.760;2023-09-12T09:11:41;21.60;76.80
70947;DHT22;58605;48.700;8.760;2023-09-12T09:14:07;21.50;76.90
70947;DHT22;58605;48.700;8.760;2023-09-12T09:16:34;21.50;77.60
70947;DHT22;58605;48.700;8.760;2023-09-12T09:19:02;21.40;77.60
70947;DHT22;58605;48.700;8.760;2023-09-12T09:21:31;21.40;77.80
70947;DHT22;58605;48.700;8.760;2023-09-12T09:24:00;21.40;77.90
70947;DHT22;58605;48.700;8.760;2023-09-12T09:26:41;21.40;77.50
70947;DHT22;58605;48.700;8.760;2023-09-12T09:29:09;21.30;78.20
70947;DHT22;58605;48.700;8.760;2023-09-12T09:31:39;21.30;77.70
70947;DHT22;58605;48.700;8.760;2023-09-12T09:34:10;21.40;77.90
70947;DHT22;58605;48.700;8.760;2023-09-12T09:36:41;21.50;77.50
70947;DHT22;58605;48.700;8.760;2023-09-12T09:39:08;21.50;77.70
70947;DHT22;58605;48.700;8.760;2023-09-12T09:41:36;21.70;76.80
70947;DHT22;58605;48.700;8.760;2023-09-12T09:44:03;21.60;76.50
70947;DHT22;58605;48.700;8.760;2023-09-12T09:46:30;21.60;76.90
70947;DHT22;58605;48.700;8.760;2023-09-12T09:48:56;21.50;76.90
70947;DHT22;58605;48.700;8.760;2023-09-12T09:51:23;21.50;76.90
70947;DHT22;58605;48.700;8.760;2023-09-12T09:53:51;21.50;77.00
70947;DHT22;58605;48.700;8.760;2023-09-12T09:56:18;21.40;76.90
70947;DHT22;58605;48.700;8.760;2023-09-12T09:58:50;21.50;77.20
70947;DHT22;58605;48.700;8.760;2023-09-12T10:01:18;21.50;77.20
70947;DHT22;58605;48.700;8.760;2023-09-12T10:03:46;21.50;77.20
70947;DHT22;58605;48.700;8.760;2023-09-12T10:06:15;21.50;77.10
70947;DHT22;58605;48.700;8.760;2023-09-12T10:08:43;21.50;77.10
70947;DHT22;58605;48.700;8.760;2023-09-12T10:11:11;21.50;77.10
70947;DHT22;58605;48.700;8.760;2023-09-12T10:13:38;21.50;77.10
70947;DHT22;58605;48.700;8.760;2023-09-12T10:16:09;21.50;77.00
70947;DHT22;58605;48.700;8.760;2023-09-12T10:18:39;21.60;76.90
70947;DHT22;58605;48.700;8.760;2023-09-12T10:21:11;21.60;76.80
70947;DHT22;58605;48.700;8.760;2023-09-12T10:23:44;21.60;76.60
70947;DHT22;58605;48.700;8.760;2023-09-12T10:26:12;21.70;76.60
70947;DHT22;58605;48.700;8.760;2023-09-12T10:28:40;21.60;76.50
70947;DHT22;58605;48.700;8.760;2023-09-12T10:31:11;21.60;76.50
70947;DHT22;58605;48.700;8.760;2023-09-12T10:33:37;21.70;76.60
70947;DHT22;58605;48.700;8.760;2023-09-12T10:36:05;21.70;76.40
70947;DHT22;58605;48.700;8.760;2023-09-12T10:38:33;21.70;76.30
70947;DHT22;58605;48.700;8.760;2023-09-12T10:41:02;21.60;76.00
70947;DHT22;58605;48.700;8.760;2023-09-12T10:43:30;21.70;76.20
70947;DHT22;58605;48.700;8.760;2023-09-12T10:46:01;21.70;76.00
70947;DHT22;58605;48.700;8.760;2023-09-12T10:48:29;21.70;75.90
70947;DHT22;58605;48.700;8.760;2023-09-12T10:50:57;21.70;75.60
70947;DHT22;58605;48.700;8.760;2023-09-12T10:53:26;21.80;75.60
70947;DHT22;58605;48.700;8.760;2023-09-12T10:56:01;21.70;75.10
70947;DHT22;58605;48.700;8.760;2023-09-12T10:59:10;21.70;75.30
70947;DHT22;58605;48.700;8.760;2023-09-12T11:01:38;21.80;75.10
70947;DHT22;58605;48.700;8.760;2023-09-12T11:04:31;21.80;74.80
70947;DHT22;58605;48.700;8.760;2023-09-12T11:06:59;21.80;74.30
70947;DHT22;58605;48.700;8.760;2023-09-12T11:09:25;21.80;74.10
70947;DHT22;58605;48.700;8.760;2023-09-12T11:11:56;21.90;73.90
70947;DHT22;58605;48.700;8.760;2023-09-12T11:14:22;21.90;73.90
70947;DHT22;58605;48.700;8.760;2023-09-12T11:17:20;21.90;73.90
70947;DHT22;58605;48.700;8.760;2023-09-12T11:19:49;22.00;73.50
70947;DHT22;58605;48.700;8.760;2023-09-12T11:22:22;22.00;73.10
70947;DHT22;58605;48.700;8.760;2023-09-12T11:24:49;22.00;73.70
70947;DHT22;58605;48.700;8.760;2023-09-12T11:27:15;22.00;73.10
70947;DHT22;58605;48.700;8.760;2023-09-12T11:29:41;22.00;73.00
70947;DHT22;58605;48.700;8.760;2023-09-12T11:32:09;22.00;72.80
70947;DHT22;58605;48.700;8.760;2023-09-12T11:34:37;22.10;72.60
70947;DHT22;58605;48.700;8.760;2023-09-12T11:37:05;22.00;73.20
70947;DHT22;58605;48.700;8.760;2023-09-12T11:39:33;22.00;74.10
70947;DHT22;58605;48.700;8.760;2023-09-12T11:42:01;21.90;75.60
70947;DHT22;58605;48.700;8.760;2023-09-12T11:44:28;21.90;75.30
70947;DHT22;58605;48.700;8.760;2023-09-12T11:46:57;22.00;73.00
70947;DHT22;58605;48.700;8.760;2023-09-12T11:49:34;22.10;71.70
70947;DHT22;58605;48.700;8.760;2023-09-12T11:52:00;22.20;70.80
70947;DHT22;58605;48.700;8.760;2023-09-12T11:54:29;22.50;70.20
70947;DHT22;58605;48.700;8.760;2023-09-12T11:56:57;22.50;70.40
70947;DHT22;58605;48.700;8.760;2023-09-12T11:59:25;22.90;74.20
70947;DHT22;58605;48.700;8.760;2023-09-12T12:01:52;25.00;68.60
70947;DHT22;58605;48.700;8.760;2023-09-12T12:04:23;26.50;62.40
70947;DHT22;58605;48.700;8.760;2023-09-12T12:06:51;27.10;60.90
70947;DHT22;58605;48.700;8.760;2023-09-12T12:09:17;27.40;59.70
70947;DHT22;58605;48.700;8.760;2023-09-12T12:11:46;27.60;59.20
70947;DHT22;58605;48.700;8.760;2023-09-12T12:14:13;27.70;58.70
70947;DHT22;58605;48.700;8.760;2023-09-12T12:16:41;27.30;58.50
70947;DHT22;58605;48.700;8.760;2023-09-12T12:19:07;27.50;57.90
70947;DHT22;58605;48.700;8.760;2023-09-12T12:21:33;27.20;57.00
70947;DHT22;58605;48.700;8.760;2023-09-12T12:24:00;27.30;59.40
70947;DHT22;58605;48.700;8.760;2023-09-12T12:26:26;27.30;57.70
70947;DHT22;58605;48.700;8.760;2023-09-12T12:28:54;26.80;58.50
70947;DHT22;58605;48.700;8.760;2023-09-12T12:31:20;27.00;57.60
70947;DHT22;58605;48.700;8.760;2023-09-12T12:33:50;27.40;57.50
70947;DHT22;58605;48.700;8.760;2023-09-12T12:36:16;27.70;56.10
70947;DHT22;58605;48.700;8.760;2023-09-12T12:38:42;27.90;56.20
70947;DHT22;58605;48.700;8.760;2023-09-12T12:41:11;28.00;54.60
70947;DHT22;58605;48.700;8.760;2023-09-12T12:43:40;28.20;54.90
70947;DHT22;58605;48.700;8.760;2023-09-12T12:46:11;28.30;56.50
70947;DHT22;58605;48.700;8.760;2023-09-12T12:48:38;28.30;55.00
70947;DHT22;58605;48.700;8.760;2023-09-12T12:51:14;28.20;55.20
70947;DHT22;58605;48.700;8.760;2023-09-12T12:53:43;28.10;54.90
70947;DHT22;58605;48.700;8.760;2023-09-12T12:56:12;28.00;54.60
70947;DHT22;58605;48.700;8.760;2023-09-12T12:58:44;28.00;56.50
70947;DHT22;58605;48.700;8.760;2023-09-12T13:01:12;28.00;54.60
70947;DHT22;58605;48.700;8.760;2023-09-12T13:03:38;28.00;56.10
70947;DHT22;58605;48.700;8.760;2023-09-12T13:06:04;28.10;54.10
70947;DHT22;58605;48.700;8.760;2023-09-12T13:08:32;28.00;55.60
70947;DHT22;58605;48.700;8.760;2023-09-12T13:11:00;27.70;55.60
70947;DHT22;58605;48.700;8.760;2023-09-12T13:13:28;28.00;55.30
70947;DHT22;58605;48.700;8.760;2023-09-12T13:15:54;28.00;57.30
70947;DHT22;58605;48.700;8.760;2023-09-12T13:18:21;27.90;55.40
70947;DHT22;58605;48.700;8.760;2023-09-12T13:20:47;27.90;56.00
70947;DHT22;58605;48.700;8.760;2023-09-12T13:23:13;28.10;54.10
70947;DHT22;58605;48.700;8.760;2023-09-12T13:25:39;28.00;55.20
70947;DHT22;58605;48.700;8.760;2023-09-12T13:28:06;28.20;55.00
70947;DHT22;58605;48.700;8.760;2023-09-12T13:30:32;28.30;54.30
70947;DHT22;58605;48.700;8.760;2023-09-12T13:32:58;28.10;55.10
70947;DHT22;58605;48.700;8.760;2023-09-12T13:35:25;28.00;57.50
70947;DHT22;58605;48.700;8.760;2023-09-12T13:37:52;27.60;56.40
70947;DHT22;58605;48.700;8.760;2023-09-12T13:40:18;27.00;57.80
70947;DHT22;58605;48.700;8.760;2023-09-12T13:42:45;27.00;58.00
70947;DHT22;58605;48.700;8.760;2023-09-12T13:45:11;26.50;58.90
70947;DHT22;58605;48.700;8.760;2023-09-12T13:47:37;25.90;60.00
70947;DHT22;58605;48.700;8.760;2023-09-12T13:50:04;25.50;61.70
70947;DHT22;58605;48.700;8.760;2023-09-12T13:52:32;25.90;61.50
70947;DHT22;58605;48.700;8.760;2023-09-12T13:54:58;25.80;60.80
70947;DHT22;58605;48.700;8.760;2023-09-12T13:57:28;25.60;61.60
70947;DHT22;58605;48.700;8.760;2023-09-12T13:59:54;25.00;63.10
70947;DHT22;58605;48.700;8.760;2023-09-12T14:02:20;24.80;64.70
70947;DHT22;58605;48.700;8.760;2023-09-12T14:04:46;25.20;63.10
70947;DHT22;58605;48.700;8.760;2023-09-12T14:07:12;25.00;63.70
70947;DHT22;58605;48.700;8.760;2023-09-12T14:09:39;25.70;62.50
70947;DHT22;58605;48.700;8.760;2023-09-12T14:12:06;25.20;62.80
70947;DHT22;58605;48.700;8.760;2023-09-12T14:14:32;25.00;63.60
70947;DHT22;58605;48.700;8.760;2023-09-12T14:16:58;24.60;64.50
70947;DHT22;58605;48.700;8.760;2023-09-12T14:19:25;25.30;62.00
70947;DHT22;58605;48.700;8.760;2023-09-12T14:21:51;25.10;63.00
70947;DHT22;58605;48.700;8.760;2023-09-12T14:24:17;24.90;63.70
70947;DHT22;58605;48.700;8.760;2023-09-12T14:26:44;24.50;65.00
70947;DHT22;58605;48.700;8.760;2023-09-12T14:29:10;24.20;66.00
70947;DHT22;58605;48.700;8.760;2023-09-12T14:31:37;24.00;66.60
70947;DHT22;58605;48.700;8.760;2023-09-12T14:34:03;24.10;66.20
70947;DHT22;58605;48.700;8.760;2023-09-12T14:36:31;24.10;67.50
70947;DHT22;58605;48.700;8.760;2023-09-12T14:38:57;24.30;65.80
70947;DHT22;58605;48.700;8.760;2023-09-12T14:41:23;24.10;66.60
70947;DHT22;58605;48.700;8.760;2023-09-12T14:43:50;23.90;67.00
70947;DHT22;58605;48.700;8.760;2023-09-12T14:46:16;23.80;67.50
70947;DHT22;58605;48.700;8.760;2023-09-12T14:48:42;23.70;67.70
70947;DHT22;58605;48.700;8.760;2023-09-12T14:51:10;23.70;68.00
70947;DHT22;58605;48.700;8.760;2023-09-12T14:56:58;24.20;65.40
70947;DHT22;58605;48.700;8.760;2023-09-12T14:59:25;24.80;64.30
70947;DHT22;58605;48.700;8.760;2023-09-12T15:01:51;24.50;65.20
70947;DHT22;58605;48.700;8.760;2023-09-12T15:04:18;24.70;65.10
70947;DHT22;58605;48.700;8.760;2023-09-12T15:06:44;24.40;65.60
70947;DHT22;58605;48.700;8.760;2023-09-12T15:09:10;24.20;66.20
70947;DHT22;58605;48.700;8.760;2023-09-12T15:11:36;24.10;66.90
70947;DHT22;58605;48.700;8.760;2023-09-12T15:14:02;23.90;67.30
70947;DHT22;58605;48.700;8.760;2023-09-12T15:16:30;23.90;66.80
70947;DHT22;58605;48.700;8.760;2023-09-12T15:19:00;24.30;62.70
70947;DHT22;58605;48.700;8.760;2023-09-12T15:21:28;24.40;65.50
70947;DHT22;58605;48.700;8.760;2023-09-12T15:23:54;24.40;64.60
70947;DHT22;58605;48.700;8.760;2023-09-12T15:26:20;24.50;65.30
70947;DHT22;58605;48.700;8.760;2023-09-12T15:28:46;24.10;66.50
70947;DHT22;58605;48.700;8.760;2023-09-12T15:31:12;23.90;67.20
70947;DHT22;58605;48.700;8.760;2023-09-12T15:33:40;23.80;67.60
70947;DHT22;58605;48.700;8.760;2023-09-12T15:36:06;23.70;68.00